Time;durP1;ratioP1;P1;durP2;ratioP2;P2;SDS_P1;SDS_P2;PMS_P1;PMS_P2;Temp;Humidity;BMP_temperature;BMP_pressure;BME280_temperature;BME280_humidity;BME280_pressure;Samples;Min_cycle;Max_cycle;Signal;HPM_P1;HPM_P2
2022/10/13 00:02:17;;;;;;;21.73;13.33;;;;;;;11.45;100.00;101823.31;5258210;28;20178;-70
2022/10/13 00:04:48;;;;;;;24.57;12.67;;;;;;;11.59;100.00;101831.38;5258734;28;20093;-69
2022/10/13 00:07:19;;;;;;;18.93;11.57;;;;;;;11.65;100.00;101837.25;5258479;28;20074;-69
2022/10/13 00:09:51;;;;;;;18.70;12.03;;;;;;;11.67;100.00;101840.63;5258011;28;20033;-71
2022/10/13 00:12:22;;;;;;;21.27;13.03;;;;;;;11.54;100.00;101822.88;5257617;28;20499;-70
2022/10/13 00:14:53;;;;;;;21.10;12.70;;;;;;;11.44;100.00;101825.09;5255539;28;20040;-69
2022/10/13 00:17:24;;;;;;;20.47;12.67;;;;;;;11.60;100.00;101817.34;5258340;28;20495;-69
2022/10/13 00:19:56;;;;;;;20.30;11.37;;;;;;;11.54;100.00;101817.63;5257097;28;20116;-69
2022/10/13 00:22:27;;;;;;;20.97;12.33;;;;;;;11.43;100.00;101812.06;5258372;28;20025;-69
2022/10/13 00:24:58;;;;;;;19.33;13.07;;;;;;;11.43;100.00;101812.88;5258683;28;20028;-71
2022/10/13 00:27:30;;;;;;;18.00;12.47;;;;;;;11.54;100.00;101819.38;5258921;28;20049;-69
2022/10/13 00:30:01;;;;;;;19.17;12.03;;;;;;;11.49;100.00;101806.50;5257111;28;20032;-69
2022/10/13 00:32:33;;;;;;;23.47;13.40;;;;;;;11.55;100.00;101807.97;5258689;28;20040;-70
2022/10/13 00:35:04;;;;;;;18.23;11.70;;;;;;;11.47;100.00;101806.56;5258403;28;20032;-70
2022/10/13 00:37:35;;;;;;;20.47;12.50;;;;;;;11.49;100.00;101812.59;5258361;28;20028;-69
2022/10/13 00:40:07;;;;;;;19.67;12.10;;;;;;;11.52;100.00;101805.50;5257029;28;20029;-71
2022/10/13 00:42:40;;;;;;;21.40;12.23;;;;;;;11.50;100.00;101802.97;5258095;28;20460;-70
2022/10/13 00:45:27;;;;;;;22.43;13.10;;;;;;;11.61;100.00;101810.28;5255385;28;20037;-69
2022/10/13 00:48:00;;;;;;;23.43;11.50;;;;;;;11.55;100.00;101800.97;5257936;28;20029;-70
2022/10/13 00:50:36;;;;;;;21.42;12.88;;;;;;;11.59;100.00;101807.75;5258354;28;20469;-69
2022/10/13 00:53:10;;;;;;;22.07;12.50;;;;;;;11.50;100.00;101803.78;5257898;28;20037;-69
2022/10/13 00:55:44;;;;;;;20.40;12.23;;;;;;;11.40;100.00;101804.34;5258005;28;20480;-69
2022/10/13 00:58:18;;;;;;;27.77;13.07;;;;;;;11.52;100.00;101800.28;5255757;28;20377;-69
2022/10/13 01:00:51;;;;;;;19.80;11.25;;;;;;;11.48;100.00;101802.19;5255777;28;20361;-70
2022/10/13 01:03:24;;;;;;;22.97;12.90;;;;;;;11.34;100.00;101802.84;5257252;28;20112;-71
2022/10/13 01:06:00;;;;;;;23.90;13.10;;;;;;;11.46;100.00;101796.16;5256201;28;20033;-69
2022/10/13 01:08:32;;;;;;;21.27;12.73;;;;;;;11.33;100.00;101798.50;5258027;28;20684;-69
2022/10/13 01:11:48;;;;;;;21.40;12.63;;;;;;;11.42;100.00;101812.97;5256891;28;20049;-70
2022/10/13 01:14:22;;;;;;;;;;;;;;;11.58;100.00;101806.06;5252516;28;20407;-69
2022/10/13 01:17:07;;;;;;;26.40;12.00;;;;;;;11.53;100.00;101792.31;5246037;28;19924;-70
2022/10/13 01:20:16;;;;;;;21.37;14.07;;;;;;;11.55;100.00;101800.97;5257607;28;20025;-69
2022/10/13 01:22:59;;;;;;;23.20;12.23;;;;;;;11.47;100.00;101795.22;5257673;28;20037;-69
2022/10/13 01:25:36;;;;;;;19.27;12.17;;;;;;;11.53;100.00;101802.81;5257049;28;20032;-70
2022/10/13 01:28:29;;;;;;;20.27;11.13;;;;;;;11.53;100.00;101796.72;5256594;28;20427;-69
2022/10/13 01:31:18;;;;;;;26.30;13.67;;;;;;;11.54;100.00;101803.63;5256050;28;20175;-70
2022/10/13 01:34:15;;;;;;;21.67;12.40;;;;;;;11.58;100.00;101803.44;5236551;28;20033;-70
2022/10/13 01:37:09;;;;;;;25.67;12.73;;;;;;;11.58;100.00;101808.69;5241678;28;20032;-71
2022/10/13 01:39:45;;;;;;;24.42;13.18;;;;;;;11.52;100.00;101795.03;5257103;28;20758;-70
2022/10/13 01:42:31;;;;;;;22.27;12.70;;;;;;;11.57;100.00;101799.09;5256491;28;20120;-69
2022/10/13 01:45:03;;;;;;;27.67;13.70;;;;;;;11.50;100.00;101792.47;5255255;28;20039;-71
2022/10/13 01:47:35;;;;;;;19.27;11.80;;;;;;;11.54;100.00;101788.75;5255841;28;20021;-69
2022/10/13 01:50:07;;;;;;;33.37;15.77;;;;;;;11.50;100.00;101781.97;5255451;28;20479;-70
2022/10/13 01:52:40;;;;;;;25.20;13.17;;;;;;;11.47;100.00;101779.47;5255235;28;20021;-69
2022/10/13 01:55:12;;;;;;;25.33;13.00;;;;;;;11.53;100.00;101784.44;5255654;28;20545;-69
2022/10/13 01:57:44;;;;;;;25.33;12.40;;;;;;;11.45;100.00;101773.50;5256659;28;20067;-71
2022/10/13 02:00:18;;;;;;;25.77;12.43;;;;;;;11.42;100.00;101763.13;5254260;28;20028;-69
2022/10/13 02:03:30;;;;;;;21.80;10.80;;;;;;;11.58;100.00;101777.19;5256975;28;20490;-69
2022/10/13 02:06:11;;;;;;;27.00;12.90;;;;;;;11.47;100.00;101766.38;5256602;28;20456;-69
2022/10/13 02:08:57;;;;;;;25.53;11.97;;;;;;;11.46;100.00;101769.94;5256872;28;20159;-70
2022/10/13 02:11:28;;;;;;;21.53;11.77;;;;;;;11.47;100.00;101771.63;5256754;28;20119;-70
2022/10/13 02:14:10;;;;;;;20.23;12.40;;;;;;;11.42;100.00;101765.75;5255263;28;20107;-69
2022/10/13 02:16:44;;;;;;;23.67;12.60;;;;;;;11.42;100.00;101763.13;5256716;28;20090;-69
2022/10/13 02:19:17;;;;;;;22.10;11.15;;;;;;;11.49;100.00;101754.88;5256191;28;20032;-69
2022/10/13 02:21:51;;;;;;;23.67;12.13;;;;;;;11.45;100.00;101737.59;5256829;28;20057;-69
2022/10/13 02:24:22;;;;;;;27.48;12.73;;;;;;;11.58;100.00;101755.34;5256111;28;20039;-70
2022/10/13 02:26:55;;;;;;;21.40;12.23;;;;;;;11.53;100.00;101742.47;5256232;28;20033;-69
2022/10/13 02:29:26;;;;;;;19.37;12.40;;;;;;;11.41;100.00;101725.56;5255785;28;20049;-69
2022/10/13 02:31:57;;;;;;;23.20;11.73;;;;;;;11.44;100.00;101742.91;5255898;28;20064;-69
2022/10/13 02:34:29;;;;;;;25.93;12.63;;;;;;;11.57;100.00;101745.81;5256406;28;20383;-70
2022/10/13 02:37:00;;;;;;;20.07;12.00;;;;;;;11.55;100.00;101739.78;5256186;28;20032;-70
2022/10/13 02:39:32;;;;;;;24.97;11.77;;;;;;;11.47;100.00;101740.13;5255461;28;20438;-69
2022/10/13 02:42:04;;;;;;;22.60;11.67;;;;;;;11.57;100.00;101751.03;5255900;28;20079;-68
2022/10/13 02:44:35;;;;;;;22.50;12.13;;;;;;;11.56;100.00;101739.69;5254935;28;20485;-69
2022/10/13 02:47:07;;;;;;;29.23;12.47;;;;;;;11.61;100.00;101742.94;5256143;28;20040;-69
2022/10/13 02:49:38;;;;;;;21.47;11.33;;;;;;;11.65;100.00;101738.38;5256360;28;20025;-69
2022/10/13 02:52:09;;;;;;;20.03;11.77;;;;;;;11.61;100.00;101732.44;5255969;28;20100;-69
2022/10/13 02:54:41;;;;;;;21.37;11.80;;;;;;;11.64;100.00;101739.31;5256315;28;20040;-71
2022/10/13 02:57:12;;;;;;;25.20;11.87;;;;;;;11.49;100.00;101740.91;5255936;28;20055;-69
2022/10/13 02:59:43;;;;;;;21.33;12.50;;;;;;;11.62;100.00;101722.81;5259564;28;20039;-69
2022/10/13 03:02:15;;;;;;;24.93;11.93;;;;;;;11.56;100.00;101723.09;5260068;28;20025;-70
2022/10/13 03:04:47;;;;;;;16.53;11.17;;;;;;;11.65;100.00;101743.63;5260509;28;20468;-68
2022/10/13 03:07:19;;;;;;;21.30;11.37;;;;;;;11.64;100.00;101741.09;5260118;28;20029;-69
2022/10/13 03:09:50;;;;;;;26.60;13.33;;;;;;;11.50;100.00;101719.03;5238099;28;20033;-70
2022/10/13 03:12:22;;;;;;;20.40;11.67;;;;;;;11.46;100.00;101728.81;5247508;28;20092;-69
2022/10/13 03:14:53;;;;;;;23.93;12.00;;;;;;;11.60;100.00;101724.66;5258249;28;20032;-70
2022/10/13 03:17:24;;;;;;;22.70;11.23;;;;;;;11.60;100.00;101717.63;5259484;28;20065;-69
2022/10/13 03:19:55;;;;;;;19.33;12.37;;;;;;;11.61;100.00;101721.94;5258206;28;20033;-69
2022/10/13 03:22:31;;;;;;;25.47;12.67;;;;;;;11.55;100.00;101703.03;5259686;28;20064;-71
2022/10/13 03:25:02;;;;;;;25.13;12.90;;;;;;;11.42;100.00;101714.16;5259450;28;20099;-69
2022/10/13 03:27:34;;;;;;;21.07;11.47;;;;;;;11.59;100.00;101721.16;5259794;28;20039;-70
2022/10/13 03:30:07;;;;;;;21.33;11.57;;;;;;;11.47;100.00;101719.16;5256819;28;20044;-69
2022/10/13 03:32:39;;;;;;;17.70;11.37;;;;;;;11.56;100.00;101717.84;5259949;28;20434;-69
2022/10/13 03:35:10;;;;;;;18.30;10.93;;;;;;;11.48;100.00;101694.63;5258853;28;20075;-68
2022/10/13 03:37:42;;;;;;;19.10;11.37;;;;;;;11.53;100.00;101703.13;5258865;28;20025;-69
2022/10/13 03:40:13;;;;;;;19.97;10.97;;;;;;;11.55;100.00;101700.41;5258631;28;20043;-68
2022/10/13 03:42:44;;;;;;;20.43;12.10;;;;;;;11.59;100.00;101712.47;5259388;28;20028;-69
2022/10/13 03:45:16;;;;;;;19.10;11.80;;;;;;;11.62;100.00;101707.06;5256988;28;20471;-69
2022/10/13 03:47:47;;;;;;;19.10;10.97;;;;;;;11.60;100.00;101708.91;5259711;28;20055;-69
2022/10/13 03:50:18;;;;;;;19.60;11.27;;;;;;;11.54;100.00;101701.31;5257719;28;20032;-69
2022/10/13 03:52:49;;;;;;;18.77;11.70;;;;;;;11.62;100.00;101702.63;5259585;28;20499;-68
2022/10/13 03:55:21;;;;;;;19.60;12.30;;;;;;;11.59;100.00;101697.56;5259276;28;20395;-69
2022/10/13 03:57:52;;;;;;;21.33;11.73;;;;;;;11.64;100.00;101688.63;5258830;28;20024;-69
2022/10/13 04:00:23;;;;;;;21.10;11.67;;;;;;;11.54;100.00;101694.31;5258258;28;20079;-68
2022/10/13 04:02:55;;;;;;;19.97;11.67;;;;;;;11.57;100.00;101683.66;5258552;28;20091;-69
2022/10/13 04:05:26;;;;;;;23.43;13.17;;;;;;;11.52;100.00;101675.19;5257968;28;20043;-69
2022/10/13 04:07:57;;;;;;;24.53;12.17;;;;;;;11.55;100.00;101680.28;5258822;28;20029;-69
2022/10/13 04:10:29;;;;;;;20.87;14.07;;;;;;;11.56;100.00;101666.22;5256541;28;20048;-68
2022/10/13 04:13:00;;;;;;;25.17;13.70;;;;;;;11.64;100.00;101678.13;5258786;28;20035;-68
2022/10/13 04:15:39;;;;;;;18.40;12.73;;;;;;;11.67;100.00;101677.97;5256988;28;20483;-69
2022/10/13 04:18:10;;;;;;;22.60;13.93;;;;;;;11.67;100.00;101675.34;5258839;28;20021;-69
2022/10/13 04:20:41;;;;;;;21.23;12.23;;;;;;;11.65;100.00;101671.94;5259184;28;20119;-69
2022/10/13 04:23:13;;;;;;;22.33;11.57;;;;;;;11.63;100.00;101682.50;5257227;28;20028;-71
2022/10/13 04:25:44;;;;;;;19.63;11.27;;;;;;;11.57;100.00;101678.41;5258844;28;20036;-69
2022/10/13 04:28:16;;;;;;;20.20;12.50;;;;;;;11.64;100.00;101665.84;5257602;28;20098;-69
2022/10/13 04:30:47;;;;;;;20.13;11.53;;;;;;;11.64;100.00;101662.38;5257466;28;20151;-70
2022/10/13 04:33:18;;;;;;;22.57;13.00;;;;;;;11.60;100.00;101652.03;5256833;28;20033;-69
2022/10/13 04:35:49;;;;;;;16.93;12.27;;;;;;;11.59;100.00;101649.50;5258505;28;20471;-69
2022/10/13 04:38:21;;;;;;;19.63;12.17;;;;;;;11.65;100.00;101656.19;5256991;28;20027;-69
2022/10/13 04:40:52;;;;;;;19.37;11.63;;;;;;;11.65;100.00;101658.81;5256971;28;20040;-70
2022/10/13 04:43:23;;;;;;;21.77;13.00;;;;;;;11.69;100.00;101663.00;5258272;28;20056;-69
2022/10/13 04:46:11;;;;;;;18.83;10.80;;;;;;;11.71;100.00;101661.13;5257564;28;20613;-68
2022/10/13 04:48:43;;;;;;;20.37;11.17;;;;;;;11.67;100.00;101657.81;5258126;28;20502;-67
2022/10/13 04:51:18;;;;;;;19.87;11.07;;;;;;;11.64;100.00;101644.00;5258412;28;20029;-69
2022/10/13 04:53:59;;;;;;;;;;;;;;;11.77;100.00;101662.56;5258382;28;20029;-68
2022/10/13 04:56:31;;;;;;;19.83;10.77;;;;;;;11.68;100.00;101663.91;5259422;28;19926;-70
2022/10/13 04:59:04;;;;;;;25.90;12.53;;;;;;;11.64;100.00;101662.38;5257289;28;20032;-68
2022/10/13 05:01:35;;;;;;;15.40;11.70;;;;;;;11.60;100.00;101652.03;5259882;28;20032;-68
2022/10/13 05:04:08;;;;;;;22.40;12.67;;;;;;;11.64;100.00;101649.25;5258117;28;20400;-69
2022/10/13 05:06:41;;;;;;;18.23;11.67;;;;;;;11.66;100.00;101645.63;5258749;28;20031;-69
2022/10/13 05:09:15;;;;;;;17.90;11.37;;;;;;;11.43;100.00;101641.56;5258702;28;20114;-69
2022/10/13 05:11:46;;;;;;;22.25;12.80;;;;;;;11.62;100.00;101655.41;5258605;28;20585;-69
2022/10/13 05:14:17;;;;;;;19.77;11.33;;;;;;;11.64;100.00;101657.97;5256866;28;20115;-69
2022/10/13 05:16:48;;;;;;;20.00;12.03;;;;;;;11.60;100.00;101646.78;5257554;28;20033;-69
2022/10/13 05:19:20;;;;;;;22.27;11.83;;;;;;;11.49;100.00;101636.00;5257471;28;20111;-69
2022/10/13 05:21:51;;;;;;;18.23;11.93;;;;;;;11.57;100.00;101652.19;5256363;28;20037;-73
2022/10/13 05:24:29;;;;;;;21.13;10.93;;;;;;;11.61;100.00;101658.97;5258109;28;20025;-72
2022/10/13 05:27:19;;;;;;;20.73;11.67;;;;;;;11.65;100.00;101658.81;5257515;28;20248;-69
2022/10/13 05:29:50;;;;;;;25.33;12.70;;;;;;;11.61;100.00;101648.47;5255476;28;20033;-71
2022/10/13 05:32:21;;;;;;;22.80;13.00;;;;;;;11.59;100.00;101666.06;5255305;28;20035;-72
2022/10/13 05:34:53;;;;;;;20.50;11.03;;;;;;;11.62;100.00;101654.59;5256304;28;20068;-68
2022/10/13 05:37:24;;;;;;;20.30;13.17;;;;;;;11.63;100.00;101658.91;5256870;28;20044;-70
2022/10/13 05:39:55;;;;;;;18.93;11.87;;;;;;;11.54;100.00;101656.72;5256716;28;20098;-69
2022/10/13 05:42:28;;;;;;;19.10;12.20;;;;;;;11.59;100.00;101655.56;5256278;28;20025;-72
2022/10/13 05:45:00;;;;;;;20.20;12.50;;;;;;;11.65;100.00;101658.81;5255445;28;20033;-70
2022/10/13 05:47:31;;;;;;;19.07;11.90;;;;;;;11.58;100.00;101642.53;5257305;28;20040;-70
2022/10/13 05:50:02;;;;;;;19.67;11.20;;;;;;;11.47;100.00;101633.44;5256479;28;20029;-70
2022/10/13 05:52:36;;;;;;;18.13;11.40;;;;;;;11.59;100.00;101644.25;5256307;28;20032;-71
2022/10/13 05:55:09;;;;;;;18.00;12.65;;;;;;;11.60;100.00;101652.03;5254890;28;20036;-70
2022/10/13 05:57:46;;;;;;;24.03;13.47;;;;;;;11.62;100.00;101659.84;5255010;28;20208;-70
2022/10/13 06:00:18;;;;;;;21.60;11.47;;;;;;;11.54;100.00;101651.47;5255750;28;20108;-70
2022/10/13 06:03:05;;;;;;;21.13;12.27;;;;;;;11.67;100.00;101665.69;5255693;28;20107;-73
2022/10/13 06:05:37;;;;;;;21.50;13.50;;;;;;;11.56;100.00;101657.50;5254548;28;20035;-71
2022/10/13 06:08:08;;;;;;;22.20;12.80;;;;;;;11.48;100.00;101647.41;5256085;28;20032;-70
2022/10/13 06:10:41;;;;;;;22.37;12.73;;;;;;;11.62;100.00;101644.09;5256198;28;20033;-70
2022/10/13 06:13:12;;;;;;;25.47;12.90;;;;;;;11.61;100.00;101638.00;5255499;28;20033;-71
2022/10/13 06:15:43;;;;;;;19.80;12.23;;;;;;;11.66;100.00;101642.16;5251755;28;20033;-71
2022/10/13 06:18:15;;;;;;;19.87;13.53;;;;;;;11.60;100.00;101638.94;5246407;28;20029;-72
2022/10/13 06:20:46;;;;;;;19.73;12.60;;;;;;;11.64;100.00;101625.66;5253003;28;20479;-71
2022/10/13 06:23:17;;;;;;;20.83;11.30;;;;;;;11.68;100.00;101621.91;5253469;28;20032;-72
2022/10/13 06:25:50;;;;;;;19.03;12.80;;;;;;;11.69;100.00;101627.09;5254913;28;20025;-71
2022/10/13 06:28:21;;;;;;;25.37;12.67;;;;;;;11.72;100.00;101629.56;5250735;28;20025;-73
2022/10/13 06:30:54;;;;;;;20.90;12.50;;;;;;;11.76;100.00;101629.41;5253612;28;20500;-72
2022/10/13 06:33:26;;;;;;;18.48;11.57;;;;;;;11.70;100.00;101641.06;5253208;28;20029;-72
2022/10/13 06:36:02;;;;;;;22.43;12.47;;;;;;;11.75;100.00;101639.03;5255304;28;20082;-68
2022/10/13 06:38:34;;;;;;;22.50;13.17;;;;;;;11.75;100.00;101625.91;5253708;28;20037;-70
2022/10/13 06:41:05;;;;;;;23.30;13.30;;;;;;;11.77;100.00;101625.84;5253593;28;20028;-70
2022/10/13 06:43:37;;;;;;;18.53;12.70;;;;;;;11.69;100.00;101623.63;5253257;28;20036;-71
2022/10/13 06:46:08;;;;;;;23.17;13.03;;;;;;;11.76;100.00;101630.25;5253439;28;20476;-70
2022/10/13 06:48:40;;;;;;;21.47;13.70;;;;;;;11.74;100.00;101630.34;5249815;28;20379;-70
2022/10/13 06:51:11;;;;;;;25.30;14.70;;;;;;;11.71;100.00;101621.78;5252844;28;20060;-71
2022/10/13 06:53:42;;;;;;;26.87;13.83;;;;;;;11.71;100.00;101627.03;5253562;28;20112;-72
2022/10/13 06:56:14;;;;;;;24.77;13.40;;;;;;;11.74;100.00;101616.38;5253156;28;20033;-72
2022/10/13 06:58:45;;;;;;;25.57;13.43;;;;;;;11.77;100.00;101617.97;5251472;28;20028;-72
2022/10/13 07:01:17;;;;;;;24.33;13.67;;;;;;;11.83;100.00;101631.59;5253677;28;20025;-72
2022/10/13 07:03:49;;;;;;;25.10;14.17;;;;;;;11.85;100.00;101623.69;5254055;28;20414;-73
2022/10/13 07:06:20;;;;;;;24.27;14.20;;;;;;;11.87;100.00;101619.16;5253468;28;20061;-72
2022/10/13 07:08:51;;;;;;;22.03;16.33;;;;;;;11.91;100.00;101631.22;5254156;28;20083;-74
2022/10/13 07:11:23;;;;;;;29.27;15.97;;;;;;;11.91;100.00;101625.09;5254039;28;20037;-73
2022/10/13 07:13:54;;;;;;;26.20;16.67;;;;;;;11.84;100.00;101612.31;5249159;28;20083;-72
2022/10/13 07:16:25;;;;;;;23.67;15.53;;;;;;;11.90;100.00;101624.28;5252203;28;20063;-71
2022/10/13 07:18:56;;;;;;;27.70;16.80;;;;;;;11.92;100.00;101630.28;5252712;28;20075;-70
2022/10/13 07:21:28;;;;;;;28.43;16.50;;;;;;;11.93;100.00;101637.25;5253491;28;20033;-70
2022/10/13 07:24:01;;;;;;;30.43;16.90;;;;;;;11.91;100.00;101633.84;5253910;28;20032;-72
2022/10/13 07:26:32;;;;;;;28.53;15.87;;;;;;;11.89;100.00;101616.47;5253616;28;20025;-72
2022/10/13 07:29:04;;;;;;;26.60;15.07;;;;;;;11.96;100.00;101628.34;5250662;28;20459;-72
2022/10/13 07:31:35;;;;;;;28.97;18.63;;;;;;;11.95;100.00;101619.63;5253236;28;20451;-70
2022/10/13 07:34:07;;;;;;;24.27;16.57;;;;;;;12.01;100.00;101628.94;5253627;28;20029;-70
2022/10/13 07:36:40;;;;;;;33.13;16.70;;;;;;;12.07;100.00;101636.50;5252111;28;20044;-71
2022/10/13 07:39:12;;;;;;;32.27;15.00;;;;;;;12.10;100.00;101643.38;5251421;28;20538;-71
2022/10/13 07:41:43;;;;;;;24.07;15.30;;;;;;;12.07;100.00;101626.00;5256651;28;20119;-71
2022/10/13 07:44:14;;;;;;;28.97;16.67;;;;;;;12.15;100.00;101630.03;5253396;28;20694;-72
2022/10/13 07:46:45;;;;;;;25.67;16.67;;;;;;;12.17;100.00;101633.41;5255656;28;20033;-72
2022/10/13 07:49:17;;;;;;;27.03;16.00;;;;;;;12.07;100.00;101607.63;5257717;28;20051;-71
2022/10/13 07:51:48;;;;;;;29.37;16.33;;;;;;;12.14;100.00;101623.06;5256468;28;20037;-70
2022/10/13 07:54:19;;;;;;;28.13;15.73;;;;;;;12.12;100.00;101614.41;5252732;28;20040;-71
2022/10/13 07:56:52;;;;;;;31.70;17.33;;;;;;;12.24;100.00;101634.75;5262663;28;20590;-71
2022/10/13 07:59:23;;;;;;;30.33;16.47;;;;;;;12.29;100.00;101639.75;5255260;28;20036;-71
2022/10/13 08:01:54;;;;;;;29.07;15.87;;;;;;;12.30;100.00;101628.34;5247718;28;20026;-70
2022/10/13 08:04:33;;;;;;;25.93;15.70;;;;;;;12.40;100.00;101633.94;5251258;28;20558;-71
2022/10/13 08:07:05;;;;;;;32.10;15.90;;;;;;;12.38;100.00;101641.03;5255724;28;20033;-72
2022/10/13 08:09:36;;;;;;;24.43;14.53;;;;;;;12.42;100.00;101630.28;5256943;28;20025;-71
2022/10/13 08:12:08;;;;;;;26.70;14.87;;;;;;;12.45;100.00;101637.16;5244709;28;20040;-71
2022/10/13 08:14:39;;;;;;;28.57;15.63;;;;;;;12.44;100.00;101631.03;5270322;28;20103;-70
2022/10/13 08:17:10;;;;;;;21.50;14.20;;;;;;;12.49;100.00;101628.16;5246154;28;20028;-69
2022/10/13 08:19:42;;;;;;;20.07;14.23;;;;;;;12.51;100.00;101635.97;5266994;28;20045;-72
2022/10/13 08:22:13;;;;;;;26.77;14.33;;;;;;;12.51;100.00;101628.94;5265385;28;20100;-70
2022/10/13 08:24:44;;;;;;;23.47;14.97;;;;;;;12.48;100.00;101621.22;5256810;28;20021;-70
2022/10/13 08:27:20;;;;;;;25.13;14.47;;;;;;;12.60;100.00;101618.84;5256089;28;20040;-69
2022/10/13 08:29:53;;;;;;;19.70;13.30;;;;;;;12.67;100.00;101621.03;5258425;28;20090;-73
2022/10/13 08:32:24;;;;;;;25.03;14.33;;;;;;;12.80;100.00;101617.69;5243026;28;20464;-71
2022/10/13 08:34:56;;;;;;;24.30;13.13;;;;;;;12.96;100.00;101617.69;5257004;28;20025;-70
2022/10/13 08:37:27;;;;;;;18.97;12.43;;;;;;;12.98;100.00;101605.28;5259142;28;20036;-71
2022/10/13 08:39:58;;;;;;;25.50;13.57;;;;;;;13.00;100.00;101613.94;5259935;28;20028;-72
2022/10/13 08:42:30;;;;;;;22.43;13.10;;;;;;;13.03;100.00;101631.31;5259694;28;20784;-71
2022/10/13 08:45:04;;;;;;;23.73;14.07;;;;;;;12.99;100.00;101620.13;5274257;28;20016;-72
2022/10/13 08:47:48;;;;;;;21.70;13.95;;;;;;;13.04;100.00;101627.75;5256767;28;20025;-71
2022/10/13 08:50:27;;;;;;;22.77;13.27;;;;;;;12.95;100.00;101608.09;5251582;28;20032;-71
2022/10/13 08:53:02;;;;;;;22.83;12.93;;;;;;;13.01;100.00;101623.53;5243322;28;20020;-70
2022/10/13 08:55:43;;;;;;;23.77;12.32;;;;;;;13.02;100.00;101614.69;5278740;28;20094;-71
2022/10/13 08:58:20;;;;;;;21.90;13.80;;;;;;;13.09;100.00;101616.97;5252865;28;20079;-70
2022/10/13 09:01:14;;;;;;;21.40;13.47;;;;;;;13.16;100.00;101616.50;5258536;28;20025;-73
2022/10/13 09:03:55;;;;;;;23.60;13.55;;;;;;;13.19;100.00;101604.97;5269611;28;20427;-71
2022/10/13 09:06:51;;;;;;;26.63;13.77;;;;;;;13.16;100.00;101595.47;5258073;28;20063;-70
2022/10/13 09:09:23;;;;;;;18.87;12.10;;;;;;;13.18;100.00;101595.38;5247942;28;20041;-71
2022/10/13 09:11:54;;;;;;;23.97;13.40;;;;;;;13.22;100.00;101604.78;5261204;28;20406;-70
2022/10/13 09:14:32;;;;;;;20.73;12.17;;;;;;;13.26;100.00;101605.47;5271074;28;20047;-71
2022/10/13 09:17:19;;;;;;;24.07;13.17;;;;;;;13.26;100.00;101603.69;5246239;28;20040;-71
2022/10/13 09:20:01;;;;;;;24.90;14.00;;;;;;;13.28;100.00;101614.09;5256956;28;20044;-69
2022/10/13 09:22:38;;;;;;;24.80;13.23;;;;;;;13.20;100.00;101611.91;5272737;28;20367;-70
2022/10/13 09:25:18;;;;;;;22.50;13.07;;;;;;;13.20;100.00;101601.41;5239343;28;20407;-69
2022/10/13 09:27:58;;;;;;;20.03;13.07;;;;;;;13.17;100.00;101597.19;5253881;28;20025;-71
2022/10/13 09:30:41;;;;;;;28.37;15.10;;;;;;;13.17;100.00;101591.91;5254768;28;20111;-71
2022/10/13 09:33:20;;;;;;;23.87;13.30;;;;;;;13.23;100.00;101595.13;5254488;28;20017;-71
2022/10/13 09:36:01;;;;;;;23.57;14.03;;;;;;;13.20;100.00;101598.75;5256549;28;20469;-74
2022/10/13 09:38:32;;;;;;;22.40;13.67;;;;;;;13.21;100.00;101591.72;5254636;28;20070;-70
2022/10/13 09:41:12;;;;;;;26.03;13.37;;;;;;;13.22;100.00;101589.00;5256682;28;20037;-72
2022/10/13 09:43:46;;;;;;;19.70;13.40;;;;;;;13.25;100.00;101596.72;5265516;28;20724;-72
2022/10/13 09:46:23;;;;;;;24.92;13.48;;;;;;;13.16;100.00;101574.44;5263409;28;20028;-71
2022/10/13 09:48:58;;;;;;;23.17;13.83;;;;;;;13.24;100.00;101587.13;5254334;28;20021;-72
2022/10/13 09:51:32;;;;;;;23.37;14.17;;;;;;;13.25;100.00;101594.06;5256414;28;20067;-72
2022/10/13 09:54:04;;;;;;;27.83;14.32;;;;;;;13.27;100.00;101596.63;5255493;28;20098;-71
2022/10/13 09:56:45;;;;;;;22.17;14.53;;;;;;;13.24;100.00;101586.28;5255902;28;20044;-71
2022/10/13 09:59:23;;;;;;;25.33;13.60;;;;;;;13.25;100.00;101594.06;5254085;28;20041;-72
2022/10/13 10:01:56;;;;;;;18.67;13.47;;;;;;;13.20;100.00;101593.50;5256095;28;20029;-71
2022/10/13 10:04:37;;;;;;;20.33;13.52;;;;;;;13.21;100.00;101589.97;5271575;28;20533;-73
2022/10/13 10:07:11;;;;;;;21.70;13.77;;;;;;;13.10;100.00;101580.06;5252574;28;20503;-72
2022/10/13 10:09:53;;;;;;;27.85;14.55;;;;;;;13.10;100.00;101568.69;5255167;28;20025;-72
2022/10/13 10:12:28;;;;;;;21.43;13.67;;;;;;;13.12;100.00;101577.34;5256597;28;20361;-71
2022/10/13 10:15:00;;;;;;;21.50;12.97;;;;;;;13.12;100.00;101580.81;5254440;28;20379;-71
2022/10/13 10:17:38;;;;;;;25.23;12.67;;;;;;;13.12;100.00;101582.59;5251387;28;20025;-71
2022/10/13 10:20:29;;;;;;;20.73;13.47;;;;;;;13.17;100.00;101580.53;5255194;28;20491;-71
2022/10/13 10:23:19;;;;;;;22.03;12.17;;;;;;;13.13;100.00;101577.25;5257955;28;20445;-70
2022/10/13 10:26:15;;;;;;;23.53;12.83;;;;;;;13.14;100.00;101572.84;5266080;28;20474;-72
2022/10/13 10:29:05;;;;;;;22.10;13.17;;;;;;;13.06;100.00;101575.91;5251057;28;20017;-70
2022/10/13 10:31:57;;;;;;;21.33;13.43;;;;;;;13.15;100.00;101582.41;5260604;28;20028;-72
2022/10/13 10:34:52;;;;;;;22.60;13.30;;;;;;;13.13;100.00;101574.63;5261655;28;20025;-71
2022/10/13 10:37:43;;;;;;;22.00;13.20;;;;;;;13.18;100.00;101576.97;5249588;28;20810;-72
2022/10/13 10:40:36;;;;;;;27.47;12.90;;;;;;;13.17;100.00;101576.13;5254092;28;20033;-71
2022/10/13 10:43:16;;;;;;;22.90;14.67;;;;;;;13.22;100.00;101577.63;5257301;28;20024;-72
2022/10/13 10:45:48;;;;;;;21.00;14.17;;;;;;;13.20;100.00;101569.84;5263442;28;20025;-74
2022/10/13 10:48:25;;;;;;;18.60;12.87;;;;;;;13.28;100.00;101572.84;5252328;28;20021;-69
2022/10/13 10:50:59;;;;;;;19.37;13.90;;;;;;;13.30;100.00;101570.13;5254369;28;20531;-72
2022/10/13 10:53:54;;;;;;;21.90;13.05;;;;;;;13.36;100.00;101574.19;5255419;28;20041;-72
2022/10/13 10:56:43;;;;;;;20.73;13.32;;;;;;;13.35;100.00;101561.97;5255453;28;20676;-73
2022/10/13 10:59:24;;;;;;;23.93;14.33;;;;;;;13.39;100.00;101568.72;5251092;28;20041;-73
2022/10/13 11:02:11;;;;;;;22.03;13.40;;;;;;;13.40;100.00;101562.53;5261832;28;20063;-74
2022/10/13 11:04:48;;;;;;;19.03;13.17;;;;;;;13.44;100.00;101566.66;5259139;28;20033;-72
2022/10/13 11:07:22;;;;;;;18.93;12.97;;;;;;;13.41;100.00;101556.31;5251151;28;20112;-73
2022/10/13 11:09:56;;;;;;;22.77;13.68;;;;;;;13.45;100.00;101551.72;5254861;28;20032;-71
2022/10/13 11:12:52;;;;;;;21.70;13.30;;;;;;;13.43;100.00;101550.06;5253215;28;20036;-72
2022/10/13 11:15:25;;;;;;;22.50;12.70;;;;;;;13.45;100.00;101557.00;5261820;28;20025;-71
2022/10/13 11:17:56;;;;;;;21.50;13.67;;;;;;;13.46;100.00;101538.47;5242278;28;20017;-71
2022/10/13 11:20:33;;;;;;;20.40;12.00;;;;;;;13.57;100.00;101556.28;5258493;28;20029;-71
2022/10/13 11:23:04;;;;;;;18.93;12.33;;;;;;;13.54;100.00;101543.31;5258868;28;20057;-70
2022/10/13 11:25:44;;;;;;;29.80;12.70;;;;;;;13.53;100.00;101541.59;5267323;28;20063;-71
2022/10/13 11:28:22;;;;;;;21.67;11.83;;;;;;;13.52;100.00;101540.78;5263251;28;20061;-72
2022/10/13 11:30:54;;;;;;;22.20;11.13;;;;;;;13.50;100.00;101540.00;5260042;28;20030;-73
2022/10/13 11:33:37;;;;;;;16.00;11.30;;;;;;;13.55;100.00;101529.19;5262884;28;20021;-73
2022/10/13 11:36:31;;;;;;;17.83;10.87;;;;;;;13.55;100.00;101535.31;5258756;28;20609;-73
2022/10/13 11:39:27;;;;;;;19.13;11.50;;;;;;;13.55;100.00;101527.44;5256307;28;20070;-73